Airport ID:KTME
Update Time (UTC):24 JUL 17 04:35
Wind Speed (Knots):7
Wind Direction (Magnetic):190
Temperature (°C):27
Dew Point (°C):24
Humidity (%):87
Altimeter (inHg):29.94
Density Altitude (Feet):1600
Visibility (Miles):7
Clouds (Hundreds of feet):CLR
Present Weather:NO PRECIPITATION
METAR:METAR KTME 240435Z AUTO 19007KT 7SM CLR 27/24 A2994 RMK AO2

The data displayed is for advisory purposes only and is not to be used for flight planning or operations.

This page is not automatically refreshed. Reload the page to see current data.